createdAt,value
2023-07-14T00:00:30.264Z,0.10
2023-07-14T00:02:57.157Z,0.05
2023-07-14T00:05:27.827Z,0.10
2023-07-14T00:07:55.756Z,0.00
2023-07-14T00:10:24.130Z,0.10
2023-07-14T00:12:52.378Z,0.00
2023-07-14T00:15:21.094Z,0.00
2023-07-14T00:17:49.323Z,0.10
2023-07-14T00:20:20.536Z,0.00
2023-07-14T00:22:46.960Z,0.03
2023-07-14T00:25:13.826Z,0.10
2023-07-14T00:27:40.507Z,0.00
2023-07-14T00:30:17.727Z,0.10
2023-07-14T00:32:44.497Z,0.00
2023-07-14T00:35:31.217Z,0.00
2023-07-14T00:37:58.098Z,0.00
2023-07-14T00:40:44.363Z,0.00
2023-07-14T00:43:15.709Z,0.00
2023-07-14T00:45:42.150Z,0.10
2023-07-14T00:48:13.504Z,0.05
2023-07-14T00:50:45.972Z,0.20
2023-07-14T00:53:15.427Z,0.10
2023-07-14T00:55:47.472Z,0.20
2023-07-14T01:00:40.887Z,0.10
2023-07-14T01:03:14.801Z,0.10
2023-07-14T01:05:41.285Z,0.10
2023-07-14T01:08:07.742Z,0.10
2023-07-14T01:10:34.216Z,0.10
2023-07-14T01:13:04.636Z,0.10
2023-07-14T01:15:31.076Z,0.10
2023-07-14T01:17:57.573Z,0.13
2023-07-14T01:20:24.022Z,0.20
2023-07-14T01:23:02.731Z,0.10
2023-07-14T01:25:38.668Z,0.10
2023-07-14T01:28:06.688Z,0.20
2023-07-14T01:30:34.108Z,0.20
2023-07-14T01:33:00.828Z,0.10
2023-07-14T01:35:32.531Z,0.10
2023-07-14T01:37:59.185Z,0.22
2023-07-14T01:40:26.044Z,0.30
2023-07-14T01:43:03.552Z,0.43
2023-07-14T01:45:32.467Z,0.20
2023-07-14T01:48:01.796Z,0.10
2023-07-14T01:50:33.525Z,0.15
2023-07-14T01:53:05.787Z,0.35
2023-07-14T01:55:35.946Z,0.10
2023-07-14T01:58:05.423Z,0.10
2023-07-14T02:00:32.742Z,0.10
2023-07-14T02:03:00.540Z,0.10
2023-07-14T02:05:31.414Z,0.10
2023-07-14T02:07:59.139Z,0.10
2023-07-14T02:10:25.701Z,0.10
2023-07-14T02:12:52.533Z,0.10
2023-07-14T02:15:21.118Z,0.10
2023-07-14T02:17:47.840Z,0.10
2023-07-14T02:20:34.581Z,0.10
2023-07-14T02:23:02.664Z,0.10
2023-07-14T02:25:32.810Z,0.10
2023-07-14T02:27:59.177Z,0.20
2023-07-14T02:30:27.342Z,0.20
2023-07-14T02:32:57.012Z,0.25
2023-07-14T02:35:34.886Z,0.30
2023-07-14T02:38:04.687Z,0.20
2023-07-14T02:40:50.634Z,0.20
2023-07-14T02:43:17.933Z,0.28
2023-07-14T02:46:00.001Z,0.10
2023-07-14T02:48:32.648Z,0.10
2023-07-14T02:50:59.227Z,0.10
2023-07-14T02:53:25.678Z,0.10
2023-07-14T02:55:52.092Z,0.10
2023-07-14T02:58:18.884Z,0.20
2023-07-14T03:00:45.593Z,0.10
2023-07-14T03:03:12.447Z,0.10
2023-07-14T03:05:38.933Z,0.10
2023-07-14T03:08:08.833Z,0.10
2023-07-14T03:10:35.244Z,0.00
2023-07-14T03:13:01.977Z,0.10
2023-07-14T03:15:28.345Z,0.10
2023-07-14T03:17:54.858Z,0.10
2023-07-14T03:20:21.267Z,0.10
2023-07-14T03:22:47.710Z,0.00
2023-07-14T03:25:14.110Z,0.10
2023-07-14T03:27:41.848Z,0.10
2023-07-14T03:30:08.405Z,0.10
2023-07-14T03:32:34.932Z,0.00
2023-07-14T03:35:01.334Z,0.10
2023-07-14T03:37:27.722Z,0.10
2023-07-14T03:39:54.121Z,0.10
2023-07-14T03:42:20.507Z,0.10
2023-07-14T03:44:46.952Z,0.22
2023-07-14T03:47:13.369Z,0.20
2023-07-14T03:49:39.756Z,0.15
2023-07-14T03:52:06.414Z,0.20
2023-07-14T03:54:32.969Z,0.20
2023-07-14T03:57:00.018Z,0.10
2023-07-14T03:59:26.866Z,0.20
2023-07-14T04:01:53.310Z,0.10
2023-07-14T04:04:20.608Z,0.10
2023-07-14T04:06:47.105Z,0.10
2023-07-14T04:09:13.479Z,0.10
2023-07-14T04:11:39.887Z,0.10
2023-07-14T04:14:06.960Z,0.10
2023-07-14T04:16:33.645Z,0.10
2023-07-14T04:19:00.338Z,0.10
2023-07-14T04:21:28.335Z,0.15
2023-07-14T04:23:55.457Z,0.10
2023-07-14T04:26:22.469Z,0.10
2023-07-14T04:28:49.086Z,0.10
2023-07-14T04:31:16.152Z,0.00
2023-07-14T04:33:49.638Z,0.08
2023-07-14T04:36:16.414Z,0.00
2023-07-14T04:38:43.486Z,0.10
2023-07-14T04:41:13.324Z,0.10
2023-07-14T04:43:39.719Z,0.00
2023-07-14T04:46:06.136Z,0.00
2023-07-14T04:48:32.668Z,0.05
2023-07-14T04:50:59.031Z,0.00
2023-07-14T04:53:25.519Z,0.00
2023-07-14T04:55:51.939Z,0.13
2023-07-14T04:58:18.625Z,0.20
2023-07-14T05:00:46.833Z,0.20
2023-07-14T05:03:13.333Z,0.10
2023-07-14T05:05:39.777Z,0.00
2023-07-14T05:08:06.317Z,0.00
2023-07-14T05:10:33.786Z,0.00
2023-07-14T05:13:00.335Z,0.00
2023-07-14T05:15:27.133Z,0.10
2023-07-14T05:17:53.920Z,0.10
2023-07-14T05:20:21.159Z,0.20
2023-07-14T05:22:49.063Z,0.10
2023-07-14T05:25:16.551Z,0.10
2023-07-14T05:27:45.112Z,0.10
2023-07-14T05:30:13.194Z,0.00
2023-07-14T05:32:39.907Z,0.00
2023-07-14T05:35:07.695Z,0.10
2023-07-14T05:37:34.120Z,0.20
2023-07-14T05:40:00.547Z,0.17
2023-07-14T05:42:26.910Z,0.30
2023-07-14T05:44:53.307Z,0.30
2023-07-14T05:47:25.014Z,0.20
2023-07-14T05:49:51.892Z,0.20
2023-07-14T05:52:18.761Z,0.30
2023-07-14T05:54:45.596Z,0.20
2023-07-14T05:57:11.946Z,0.20
2023-07-14T05:59:38.399Z,0.30
2023-07-14T06:02:04.901Z,0.30
2023-07-14T06:04:32.080Z,0.10
2023-07-14T06:06:58.457Z,0.30
2023-07-14T06:09:25.408Z,0.30
2023-07-14T06:11:51.793Z,0.30
2023-07-14T06:14:18.409Z,0.20
2023-07-14T06:16:44.846Z,0.17
2023-07-14T06:19:11.264Z,0.25
2023-07-14T06:21:37.692Z,0.30
2023-07-14T06:24:04.168Z,0.20
2023-07-14T06:26:30.585Z,0.40
2023-07-14T06:28:56.952Z,0.30
2023-07-14T06:31:24.685Z,0.20
2023-07-14T06:33:51.270Z,0.20
2023-07-14T06:36:17.685Z,0.40
2023-07-14T06:38:44.068Z,0.35
2023-07-14T06:41:10.472Z,0.47
2023-07-14T06:43:37.885Z,0.30
2023-07-14T06:46:04.498Z,0.10
2023-07-14T06:48:31.342Z,0.43
2023-07-14T06:50:57.795Z,0.30
2023-07-14T06:53:24.670Z,0.30
2023-07-14T06:55:51.253Z,0.40
2023-07-14T06:58:17.629Z,0.40
2023-07-14T07:00:44.028Z,0.30
2023-07-14T07:03:10.440Z,0.45
2023-07-14T07:05:39.195Z,0.30
2023-07-14T07:08:06.040Z,0.15
2023-07-14T07:10:34.144Z,0.40
2023-07-14T07:13:00.552Z,0.30
2023-07-14T07:15:27.007Z,0.40
2023-07-14T07:17:53.475Z,0.40
2023-07-14T07:20:20.247Z,0.45
2023-07-14T07:22:47.151Z,0.70
2023-07-14T07:25:13.603Z,0.70
2023-07-14T07:27:40.053Z,0.65
2023-07-14T07:30:06.968Z,0.60
2023-07-14T07:32:33.408Z,0.60
2023-07-14T07:35:02.281Z,0.50
2023-07-14T07:37:29.844Z,0.40
2023-07-14T07:39:56.588Z,0.40
2023-07-14T07:42:23.481Z,0.80
2023-07-14T07:44:49.933Z,0.60
2023-07-14T07:47:16.818Z,0.80
2023-07-14T07:49:43.285Z,0.50
2023-07-14T07:52:13.025Z,0.70
2023-07-14T07:54:39.832Z,0.65
2023-07-14T07:57:07.947Z,0.73
2023-07-14T07:59:34.520Z,0.50
2023-07-14T08:02:01.093Z,0.75
2023-07-14T08:04:28.001Z,0.50
2023-07-14T08:06:54.875Z,0.70
2023-07-14T08:09:21.712Z,0.60
2023-07-14T08:11:48.135Z,0.50
2023-07-14T08:14:20.000Z,0.40
2023-07-14T08:16:46.790Z,0.70
2023-07-14T08:19:16.434Z,1.02
2023-07-14T08:21:42.951Z,1.10
2023-07-14T08:24:10.313Z,0.60
2023-07-14T08:26:37.511Z,0.63
2023-07-14T08:29:04.546Z,0.52
2023-07-14T08:31:31.624Z,0.90
2023-07-14T08:33:58.398Z,0.98
2023-07-14T08:36:24.984Z,0.80
2023-07-14T08:38:51.439Z,0.70
2023-07-14T08:41:17.848Z,0.70
2023-07-14T08:44:03.289Z,0.82
2023-07-14T08:46:29.702Z,0.40
2023-07-14T08:49:04.456Z,0.60
2023-07-14T08:51:45.836Z,0.63
2023-07-14T08:54:17.770Z,0.47
2023-07-14T08:56:44.586Z,0.88
2023-07-14T08:59:16.764Z,0.80
2023-07-14T09:01:47.596Z,1.25
2023-07-14T09:04:21.842Z,1.05
2023-07-14T09:06:48.674Z,0.77
2023-07-14T09:09:17.275Z,0.70
2023-07-14T09:11:59.295Z,0.63
2023-07-14T09:14:44.401Z,0.65
2023-07-14T09:17:24.853Z,0.80
2023-07-14T09:19:54.006Z,0.40
2023-07-14T09:22:20.415Z,0.10
2023-07-14T09:24:53.574Z,0.55
2023-07-14T09:27:22.550Z,0.50
2023-07-14T09:29:49.523Z,1.00
2023-07-14T09:32:31.433Z,1.50
2023-07-14T09:34:59.325Z,0.90
2023-07-14T09:37:36.260Z,0.80
2023-07-14T09:40:18.937Z,0.55
2023-07-14T09:42:47.918Z,0.52
2023-07-14T09:45:22.387Z,0.70
2023-07-14T09:48:00.978Z,0.55
2023-07-14T09:50:29.039Z,0.80
2023-07-14T09:53:03.013Z,1.10
2023-07-14T09:55:31.541Z,0.80
2023-07-14T09:58:10.912Z,0.82
2023-07-14T10:00:40.644Z,0.68
2023-07-14T10:03:08.666Z,0.75
2023-07-14T10:05:44.149Z,0.95
2023-07-14T10:08:25.919Z,1.00
2023-07-14T10:10:53.154Z,0.70
2023-07-14T10:13:23.109Z,0.90
2023-07-14T10:15:58.928Z,0.85
2023-07-14T10:18:25.532Z,1.00
2023-07-14T10:21:15.363Z,0.80
2023-07-14T10:23:56.351Z,1.30
2023-07-14T10:26:24.271Z,0.90
2023-07-14T10:28:51.446Z,0.82
2023-07-14T10:31:20.776Z,1.08
2023-07-14T10:33:56.104Z,1.13
2023-07-14T10:36:25.845Z,0.85
2023-07-14T10:38:55.787Z,0.85
2023-07-14T10:41:23.498Z,0.63
2023-07-14T10:43:53.810Z,1.00
2023-07-14T10:46:24.839Z,0.80
2023-07-14T10:48:57.756Z,0.80
2023-07-14T10:51:33.193Z,0.95
2023-07-14T10:54:04.683Z,0.70
2023-07-14T10:59:00.108Z,0.63
2023-07-14T11:01:31.383Z,1.20
2023-07-14T11:04:05.169Z,1.05
2023-07-14T11:06:33.865Z,1.30
2023-07-14T11:09:00.497Z,0.85
2023-07-14T11:11:45.845Z,0.70
2023-07-14T11:14:12.474Z,0.80
2023-07-14T11:16:46.315Z,0.95
2023-07-14T11:19:37.455Z,0.70
2023-07-14T11:22:34.992Z,1.10
2023-07-14T11:25:07.632Z,1.10
2023-07-14T11:27:39.330Z,1.27
2023-07-14T11:30:13.229Z,1.10
2023-07-14T11:32:46.047Z,0.70
2023-07-14T11:35:18.558Z,0.95
2023-07-14T11:37:48.044Z,0.90
2023-07-14T11:40:22.043Z,1.20
2023-07-14T11:42:54.779Z,0.80
2023-07-14T11:45:22.794Z,0.60
2023-07-14T11:47:49.825Z,1.10
2023-07-14T11:50:25.680Z,0.95
2023-07-14T11:53:06.614Z,1.13
2023-07-14T11:55:34.433Z,0.82
2023-07-14T11:58:13.459Z,0.70
2023-07-14T12:00:41.137Z,0.60
2023-07-14T12:06:10.568Z,0.73
2023-07-14T12:08:39.144Z,0.75
2023-07-14T12:11:05.658Z,1.27
2023-07-14T12:13:39.149Z,1.00
2023-07-14T12:16:12.926Z,1.10
2023-07-14T12:19:00.794Z,1.25
2023-07-14T12:21:27.896Z,0.93
2023-07-14T12:24:00.064Z,1.20
2023-07-14T12:26:33.199Z,1.13
2023-07-14T12:29:06.021Z,1.20
2023-07-14T12:31:36.315Z,0.90
2023-07-14T12:34:04.302Z,1.20
2023-07-14T12:36:32.780Z,1.20
2023-07-14T12:39:00.680Z,0.93
2023-07-14T12:41:30.415Z,1.00
2023-07-14T12:43:57.940Z,1.38
2023-07-14T12:46:36.573Z,1.58
2023-07-14T12:49:19.095Z,1.30
2023-07-14T12:51:45.928Z,1.10
2023-07-14T12:54:16.210Z,1.35
2023-07-14T12:56:42.635Z,1.00
2023-07-14T12:59:19.204Z,0.80
2023-07-14T13:01:46.772Z,1.00
2023-07-14T13:04:13.948Z,1.27
2023-07-14T13:06:41.227Z,1.27
2023-07-14T13:09:09.538Z,1.10
2023-07-14T13:11:37.871Z,1.08
2023-07-14T13:14:04.862Z,1.20
2023-07-14T13:16:36.597Z,0.98
2023-07-14T13:19:04.809Z,1.20
2023-07-14T13:21:37.592Z,1.30
2023-07-14T13:24:15.497Z,1.30
2023-07-14T13:26:51.290Z,1.35
2023-07-14T13:29:22.638Z,1.30
2023-07-14T13:34:40.079Z,1.42
2023-07-14T13:37:07.056Z,1.05
2023-07-14T13:39:37.896Z,1.10
2023-07-14T13:42:07.663Z,1.20
2023-07-14T13:44:38.090Z,1.55
2023-07-14T13:47:18.698Z,1.40
2023-07-14T13:49:47.128Z,1.33
2023-07-14T13:52:15.099Z,1.55
2023-07-14T13:54:42.362Z,1.70
2023-07-14T13:57:13.093Z,1.45
2023-07-14T13:59:39.511Z,1.42
2023-07-14T14:02:18.249Z,1.20
2023-07-14T14:04:44.664Z,0.90
2023-07-14T14:07:11.070Z,1.20
2023-07-14T14:09:37.445Z,1.00
2023-07-14T14:12:04.005Z,1.40
2023-07-14T14:14:30.516Z,0.93
2023-07-14T14:16:58.559Z,1.20
2023-07-14T14:19:26.045Z,1.30
2023-07-14T14:21:53.327Z,1.15
2023-07-14T14:24:19.741Z,1.05
2023-07-14T14:26:46.160Z,1.10
2023-07-14T14:29:13.002Z,1.60
2023-07-14T14:31:40.373Z,1.20
2023-07-14T14:34:14.355Z,1.30
2023-07-14T14:36:40.811Z,1.40
2023-07-14T14:39:14.883Z,1.27
2023-07-14T14:41:42.863Z,1.20
2023-07-14T14:44:16.785Z,1.05
2023-07-14T14:46:43.354Z,1.20
2023-07-14T14:49:11.423Z,1.08
2023-07-14T14:51:38.275Z,0.85
2023-07-14T14:54:06.850Z,1.20
2023-07-14T14:56:35.214Z,1.10
2023-07-14T14:59:21.792Z,1.35
2023-07-14T15:01:49.900Z,1.52
2023-07-14T15:04:21.201Z,1.40
2023-07-14T15:06:48.661Z,1.10
2023-07-14T15:09:16.004Z,1.38
2023-07-14T15:11:46.963Z,1.33
2023-07-14T15:14:25.711Z,1.23
2023-07-14T15:16:52.699Z,1.40
2023-07-14T15:19:20.801Z,1.42
2023-07-14T15:21:47.205Z,1.40
2023-07-14T15:24:15.079Z,1.75
2023-07-14T15:26:45.930Z,1.80
2023-07-14T15:29:20.195Z,1.55
2023-07-14T15:31:47.691Z,1.38
2023-07-14T15:34:14.954Z,2.33
2023-07-14T15:36:41.988Z,1.60
2023-07-14T15:39:12.019Z,1.40
2023-07-14T15:41:39.051Z,1.85
2023-07-14T15:44:13.062Z,1.52
2023-07-14T15:46:39.494Z,1.70
2023-07-14T15:49:05.988Z,1.83
2023-07-14T15:51:33.515Z,1.90
2023-07-14T15:54:07.056Z,2.05
2023-07-14T15:56:36.806Z,1.60
2023-07-14T15:59:03.403Z,1.95
2023-07-14T16:01:31.992Z,1.70
2023-07-14T16:03:59.901Z,1.88
2023-07-14T16:06:26.511Z,1.70
2023-07-14T16:08:55.193Z,1.52
2023-07-14T16:11:35.633Z,1.60
2023-07-14T16:14:03.263Z,1.65
2023-07-14T16:16:29.790Z,1.60
2023-07-14T16:18:57.341Z,1.00
2023-07-14T16:21:25.599Z,1.10
2023-07-14T16:23:54.369Z,1.58
2023-07-14T16:26:21.220Z,1.40
2023-07-14T16:28:47.667Z,1.90
2023-07-14T16:31:15.173Z,1.60
2023-07-14T16:33:41.652Z,1.58
2023-07-14T16:36:16.198Z,1.60
2023-07-14T16:38:43.303Z,1.30
2023-07-14T16:41:13.922Z,1.73
2023-07-14T16:43:42.280Z,1.60
2023-07-14T16:46:08.872Z,1.27
2023-07-14T16:48:35.378Z,1.30
2023-07-14T16:51:02.883Z,1.58
2023-07-14T16:53:29.660Z,1.45
2023-07-14T16:55:58.892Z,1.60
2023-07-14T16:58:26.999Z,1.13
2023-07-14T17:00:53.828Z,1.80
2023-07-14T17:03:25.586Z,1.30
2023-07-14T17:05:52.545Z,1.70
2023-07-14T17:08:23.346Z,1.20
2023-07-14T17:10:50.556Z,1.13
2023-07-14T17:13:26.073Z,1.42
2023-07-14T17:15:53.391Z,1.15
2023-07-14T17:18:21.155Z,1.33
2023-07-14T17:20:49.009Z,1.42
2023-07-14T17:23:18.094Z,1.10
2023-07-14T17:25:46.003Z,1.27
2023-07-14T17:28:16.382Z,1.30
2023-07-14T17:30:42.795Z,1.25
2023-07-14T17:33:09.202Z,1.23
2023-07-14T17:35:35.719Z,1.60
2023-07-14T17:38:02.163Z,1.38
2023-07-14T17:40:29.732Z,1.55
2023-07-14T17:42:56.879Z,1.20
2023-07-14T17:45:24.349Z,0.95
2023-07-14T17:47:51.264Z,1.10
2023-07-14T17:50:18.253Z,1.42
2023-07-14T17:52:45.184Z,1.20
2023-07-14T17:55:21.772Z,1.15
2023-07-14T17:57:49.643Z,0.80
2023-07-14T18:00:17.315Z,1.30
2023-07-14T18:02:44.322Z,1.13
2023-07-14T18:05:24.845Z,1.23
2023-07-14T18:07:51.990Z,1.10
2023-07-14T18:10:18.767Z,1.00
2023-07-14T18:12:45.815Z,1.00
2023-07-14T18:15:20.914Z,1.30
2023-07-14T18:17:47.414Z,1.05
2023-07-14T18:20:15.097Z,1.00
2023-07-14T18:22:43.000Z,1.20
2023-07-14T18:25:17.237Z,1.20
2023-07-14T18:27:43.854Z,1.10
2023-07-14T18:30:15.608Z,1.00
2023-07-14T18:32:42.853Z,1.08
2023-07-14T18:35:21.287Z,1.40
2023-07-14T18:37:49.770Z,1.00
2023-07-14T18:40:19.158Z,1.00
2023-07-14T18:42:50.384Z,1.00
2023-07-14T18:45:18.366Z,0.82
2023-07-14T18:47:45.161Z,0.98
2023-07-14T18:50:12.288Z,0.65
2023-07-14T18:52:41.981Z,0.63
2023-07-14T18:55:19.452Z,0.50
2023-07-14T18:57:45.820Z,0.75
2023-07-14T19:00:22.818Z,0.70
2023-07-14T19:02:50.888Z,0.70
2023-07-14T19:05:18.259Z,0.80
2023-07-14T19:07:46.982Z,0.88
2023-07-14T19:10:15.811Z,0.90
2023-07-14T19:12:42.503Z,0.85
2023-07-14T19:15:19.540Z,0.60
2023-07-14T19:17:46.876Z,0.77
2023-07-14T19:20:15.139Z,0.50
2023-07-14T19:22:45.339Z,0.55
2023-07-14T19:25:16.012Z,0.57
2023-07-14T19:27:42.442Z,0.40
2023-07-14T19:30:15.340Z,0.30
2023-07-14T19:32:46.653Z,0.60
2023-07-14T19:35:17.584Z,0.47
2023-07-14T19:37:48.576Z,0.32
2023-07-14T19:40:15.180Z,0.40
2023-07-14T19:42:41.618Z,0.40
2023-07-14T19:45:15.842Z,0.50
2023-07-14T19:47:43.614Z,0.20
2023-07-14T19:50:13.834Z,0.20
2023-07-14T19:52:40.231Z,0.40
2023-07-14T19:55:14.102Z,0.40
2023-07-14T19:57:40.532Z,0.20
2023-07-14T20:00:12.628Z,0.10
2023-07-14T20:02:42.018Z,0.25
2023-07-14T20:05:14.255Z,0.20
2023-07-14T20:07:40.645Z,0.50
2023-07-14T20:10:12.817Z,0.50
2023-07-14T20:12:39.190Z,0.50
2023-07-14T20:15:06.112Z,0.63
2023-07-14T20:17:32.519Z,0.90
2023-07-14T20:19:58.943Z,0.70
2023-07-14T20:22:25.942Z,0.60
2023-07-14T20:24:52.459Z,0.80
2023-07-14T20:27:22.925Z,0.65
2023-07-14T20:29:50.309Z,0.50
2023-07-14T20:32:17.321Z,0.52
2023-07-14T20:34:43.693Z,0.68
2023-07-14T20:37:14.346Z,0.73
2023-07-14T20:39:40.970Z,0.87
2023-07-14T20:42:18.354Z,0.52
2023-07-14T20:44:45.666Z,0.50
2023-07-14T20:47:16.046Z,0.40
2023-07-14T20:49:42.707Z,0.50
2023-07-14T20:52:19.323Z,0.25
2023-07-14T20:54:46.193Z,0.40
2023-07-14T20:57:14.708Z,0.70
2023-07-14T20:59:41.460Z,0.63
2023-07-14T21:02:24.952Z,0.50
2023-07-14T21:04:51.509Z,0.60
2023-07-14T21:07:18.837Z,0.45
2023-07-14T21:09:45.861Z,0.75
2023-07-14T21:12:16.796Z,0.50
2023-07-14T21:14:43.322Z,0.50
2023-07-14T21:17:11.568Z,0.70
2023-07-14T21:19:38.856Z,0.60
2023-07-14T21:22:05.306Z,0.50
2023-07-14T21:24:31.773Z,0.90
2023-07-14T21:26:58.392Z,0.80
2023-07-14T21:29:25.046Z,0.60
2023-07-14T21:31:51.512Z,0.50
2023-07-14T21:34:19.404Z,0.52
2023-07-14T21:36:45.928Z,0.40
2023-07-14T21:39:22.353Z,0.70
2023-07-14T21:41:50.780Z,0.52
2023-07-14T21:44:17.259Z,0.80
2023-07-14T21:46:44.462Z,1.10
2023-07-14T21:49:11.561Z,0.85
2023-07-14T21:51:37.954Z,0.90
2023-07-14T21:54:04.617Z,0.70
2023-07-14T21:56:31.369Z,0.90
2023-07-14T21:58:57.759Z,0.80
2023-07-14T22:01:25.964Z,0.50
2023-07-14T22:03:53.238Z,0.60
2023-07-14T22:06:19.781Z,0.63
2023-07-14T22:08:46.293Z,0.32
2023-07-14T22:11:13.380Z,0.80
2023-07-14T22:13:40.022Z,0.60
2023-07-14T22:16:06.948Z,0.50
2023-07-14T22:18:46.063Z,0.60
2023-07-14T22:21:32.428Z,0.68
2023-07-14T22:23:59.267Z,0.40
2023-07-14T22:26:26.762Z,0.60
2023-07-14T22:28:53.223Z,0.50
2023-07-14T22:31:21.139Z,0.38
2023-07-14T22:33:48.281Z,0.60
2023-07-14T22:36:16.008Z,0.80
2023-07-14T22:38:42.824Z,0.80
2023-07-14T22:41:16.387Z,0.90
2023-07-14T22:43:42.770Z,1.00
2023-07-14T22:46:09.826Z,0.63
2023-07-14T22:48:36.243Z,0.77
2023-07-14T22:51:03.106Z,0.68
2023-07-14T22:53:32.007Z,0.68
2023-07-14T22:55:58.726Z,0.52
2023-07-14T22:58:26.178Z,0.73
2023-07-14T23:00:55.177Z,0.40
2023-07-14T23:03:24.090Z,1.00
2023-07-14T23:05:51.178Z,0.80
2023-07-14T23:08:17.612Z,0.73
2023-07-14T23:10:49.362Z,0.88
2023-07-14T23:13:18.625Z,1.02
2023-07-14T23:15:45.144Z,0.80
2023-07-14T23:18:13.373Z,0.93
2023-07-14T23:20:40.322Z,0.65
2023-07-14T23:23:15.566Z,0.52
2023-07-14T23:25:41.971Z,0.70
2023-07-14T23:28:09.312Z,0.60
2023-07-14T23:30:38.947Z,0.45
2023-07-14T23:33:12.635Z,0.50
2023-07-14T23:35:39.029Z,0.40
2023-07-14T23:38:05.610Z,0.38
2023-07-14T23:40:32.061Z,0.40
2023-07-14T23:42:58.544Z,0.30
2023-07-14T23:45:25.463Z,0.30
2023-07-14T23:47:52.480Z,0.32
2023-07-14T23:50:18.930Z,0.10
2023-07-14T23:52:46.258Z,0.20
2023-07-14T23:55:13.483Z,0.30
2023-07-14T23:57:39.951Z,0.20
